• Join FlightAware (Why Join?)
  • Login
  • US Flag 
08:52AM EDT


 

Airport Tracker/Info


-or-


 

Live Flight TrackerFlight Track Log ✈ RPA3161 ✈ 14-Jun-2013 ✈ KBTV - KDCA

Flight Track Log - Related Links

Times and Time Zones

All times are in EDT time to prevent confusion due to time zone crossing. See the RPA3161 flight status page for this flight to view local times or setup timezone preferences in your user account.

Time Position Orientation Groundspeed Altitude Reporting Facility
EDT Latitude Longitude Course Direction KTS MPH feet Rate Location/Type
12:41PM 44.4522 -73.2631 195° South 277 319 4,700  Level Boston Center
12:42PM 44.1730 -73.2602 195° South  Level FlightAware Approximate
12:42PM 44.3728 -73.2881 193° South 289 333 7,500  Level Boston Center
12:43PM 44.0745 -73.2971 195° South  Level FlightAware Approximate
12:43PM 44.2892 -73.3158 193° South 303 349 10,300  Level Boston Center
12:44PM 43.9754 -73.3305 194° South  Level FlightAware Approximate
12:44PM 44.1972 -73.3464 193° South 326 375 12,400  Level Boston Center
12:45PM 43.8765 -73.3651 195° South  Level FlightAware Approximate
12:45PM 44.1200 -73.3714 193° South 349 402 14,400  Level Boston Center
12:46PM 43.7781 -73.4021 195° South  Level FlightAware Approximate
12:46PM 44.0008 -73.4097 193° South 357 411 16,900  Level Boston Center
12:47PM 43.6797 -73.4389 195° South  Level FlightAware Approximate
12:47PM 43.8986 -73.4456 194° South 370 426 19,100  Level Boston Center
12:48PM 43.8192 -73.4703 193° South 376 433 20,700 1,740 Climbing Boston Center
12:49PM 43.7000 -73.5083 193° South 381 438 22,600 1,800 Climbing Boston Center
12:50PM 43.5808 -73.5436 192° South 387 445 24,400 1,800 Climbing Boston Center
12:51PM 43.4722 -73.5758 192° South 393 452 26,200 1,740 Climbing Boston Center
12:52PM 43.3656 -73.6111 194° South 393 452 27,900 1,500 Climbing Boston Center
12:53PM 43.2589 -73.6431 192° South 393 452 29,300 1,200 Climbing Boston Center
12:54PM 43.1481 -73.6808 194° South 393 452 30,400 1,020 Climbing Boston Center
12:55PM 43.0436 -73.7128 193° South 405 466 31,400 1,200 Climbing Boston Center
12:56PM 42.9306 -73.7472 193° South 417 480 32,900 1,200 Climbing Boston Center
12:57PM 42.8219 -73.7819 193° South 412 474 33,800 540 Climbing Boston Center
12:58PM 42.7050 -73.7992 186° South 417 480 34,000 60 Climbing Boston Center
12:59PM 42.5822 -73.7822 174° South 406 467 34,000  Level Boston Center
01:00PM 42.4678 -73.7658 174° South 406 467 34,000  Level Boston Center
01:01PM 42.3553 -73.7464 173° South 406 467 34,000  Level Boston Center
01:02PM 42.2389 -73.7328 175° South 411 473 34,000  Level Boston Center
01:03PM 42.1264 -73.7222 176° South 411 473 34,000  Level Boston Center
01:04PM 42.0217 -73.7731 200° South 399 459 34,000  Level Boston Center
01:06PM 41.8500 -73.8592 200° South 394 453 34,000  Level New York Center
01:07PM 41.7444 -73.9156 202° Southwest 400 460 34,000  Level New York Center
01:08PM 41.6411 -73.9689 201° Southwest 400 460 34,000  Level New York Center
01:09PM 41.5544 -74.0144 201° Southwest 395 455 34,000  Level New York Center
01:10PM 41.4508 -74.0675 201° Southwest 389 448 34,000  Level New York Center
01:11PM 41.3453 -74.1206 201° Southwest 394 453 34,000  Level New York Center
01:12PM 41.2439 -74.1733 201° Southwest 394 453 34,000  Level New York Center
01:13PM 41.1256 -74.2281 199° South 400 460 34,000 -540 Level New York Center
01:14PM 41.0219 -74.2831 202° Southwest 400 460 33,000 -1,140 Descending New York Center
01:15PM 40.9161 -74.3353 200° South 400 460 31,800 -1,200 Descending New York Center
01:16PM 40.8125 -74.3903 202° Southwest 400 460 30,600 -1,320 Descending New York Center
01:17PM 40.7319 -74.4956 225° Southwest 400 460 29,200 -1,260 Descending New York Center
01:18PM 40.6617 -74.6147 232° Southwest 401 461 28,100 -600 Descending New York Center
01:19PM 40.5911 -74.7311 231° Southwest 408 470 28,000 -60 Descending New York Center
01:20PM 40.5164 -74.8386 228° Southwest 413 475 28,000  Level New York Center
01:21PM 40.4378 -74.9486 227° Southwest 419 482 28,000  Level New York Center
01:22PM 40.3586 -75.0581 227° Southwest 419 482 28,000  Level New York Center
01:23PM 40.2817 -75.1678 227° Southwest 419 482 28,000 -780 Level New York Center
01:24PM 40.2044 -75.2797 228° Southwest 424 488 26,500 -1,800 Descending New York Center
01:25PM 40.1294 -75.3861 227° Southwest 419 482 24,400 -2,160 Descending New York Center
01:26PM 40.0547 -75.4869 226° Southwest 408 470 22,300 -1,200 Descending New York Center
01:27PM 39.9794 -75.5928 227° Southwest 408 470 22,000 -600 Descending New York Center
01:28PM 39.9086 -75.6961 228° Southwest 403 464 21,100 -1,440 Descending New York Center
01:29PM 39.8372 -75.8075 230° Southwest 398 458 19,100 -1,080 Descending New York Center
01:30PM 39.7767 -75.9031 231° Southwest 391 450 19,000 -60 Descending New York Center
01:31PM 39.7006 -76.0217 230° Southwest 391 450 19,000 -900 Level New York Center
01:32PM 39.6331 -76.1325 232° Southwest 391 450 17,200 -1,980 Descending New York Center
01:33PM 39.5678 -76.2353 231° Southwest 385 443 15,100 -2,040 Descending New York Center
01:34PM 39.5000 -76.3333 228° Southwest 361 415 13,300 -1,620 Descending Potomac TRACON
01:35PM 39.4333 -76.4333 229° Southwest 356 410 12,000 -660 Descending Potomac TRACON
01:36PM 39.3500 -76.5000 212° Southwest 362 417 12,000 -300 Level Potomac TRACON
01:37PM 39.2667 -76.5833 218° Southwest 361 415 11,400 -960 Descending Potomac TRACON
01:38PM 39.1833 -76.6500 212° Southwest 352 405 10,100 -780 Descending Potomac TRACON
01:39PM 39.1167 -76.7333 224° Southwest 347 399 10,000 -120 Descending Potomac TRACON
01:40PM 39.0333 -76.8167 218° Southwest 328 377 9,900 -900 Descending Potomac TRACON
01:41PM 38.9833 -76.8833 226° Southwest 306 352 8,300 -1,800 Descending Potomac TRACON
01:42PM 38.9167 -76.9500 218° Southwest 308 354 6,500 -1,140 Descending Potomac TRACON
01:43PM 38.8333 -76.9500 180° South 268 308 6,000 -720 Descending Potomac TRACON
01:44PM 38.7667 -76.9500 180° South 220 253 5,000 -1,080 Descending Potomac TRACON
01:45PM 38.7167 -76.9500 180° South 215 247 3,900 -1,020 Descending Potomac TRACON
01:46PM 38.7000 -77.0167 252° West 194 223 3,000 -960 Descending Potomac TRACON
01:47PM 38.7500 -77.0333 345° North 167 192 2,000 -1,020 Descending Potomac TRACON